sensor_id;sensor_type;location;lat;lon;timestamp;P1;durP1;ratioP1;P2;durP2;ratioP2
57899;SDS011;60605;53.716;19.940;2023-06-24T00:01:47;7.70;;;6.70;;
57899;SDS011;60605;53.716;19.940;2023-06-24T00:06:49;8.00;;;6.60;;
57899;SDS011;60605;53.716;19.940;2023-06-24T00:11:54;6.90;;;6.20;;
57899;SDS011;60605;53.716;19.940;2023-06-24T00:21:59;8.30;;;6.90;;
57899;SDS011;60605;53.716;19.940;2023-06-24T00:27:05;8.50;;;6.70;;
57899;SDS011;60605;53.716;19.940;2023-06-24T00:32:07;7.20;;;6.50;;
57899;SDS011;60605;53.716;19.940;2023-06-24T00:37:09;8.60;;;7.50;;
57899;SDS011;60605;53.716;19.940;2023-06-24T00:42:12;8.30;;;7.30;;
57899;SDS011;60605;53.716;19.940;2023-06-24T00:47:14;8.10;;;7.30;;
57899;SDS011;60605;53.716;19.940;2023-06-24T00:52:17;9.40;;;7.20;;
57899;SDS011;60605;53.716;19.940;2023-06-24T00:57:19;9.10;;;7.90;;
57899;SDS011;60605;53.716;19.940;2023-06-24T01:02:27;10.50;;;7.30;;
57899;SDS011;60605;53.716;19.940;2023-06-24T01:07:30;9.40;;;8.10;;
57899;SDS011;60605;53.716;19.940;2023-06-24T01:12:37;8.70;;;7.60;;
57899;SDS011;60605;53.716;19.940;2023-06-24T01:23:14;8.10;;;7.30;;
57899;SDS011;60605;53.716;19.940;2023-06-24T01:33:32;8.60;;;7.80;;
57899;SDS011;60605;53.716;19.940;2023-06-24T01:38:48;9.50;;;7.70;;
57899;SDS011;60605;53.716;19.940;2023-06-24T01:43:57;10.00;;;7.50;;
57899;SDS011;60605;53.716;19.940;2023-06-24T01:54:05;10.00;;;7.60;;
57899;SDS011;60605;53.716;19.940;2023-06-24T01:59:12;9.00;;;8.10;;
57899;SDS011;60605;53.716;19.940;2023-06-24T02:04:15;9.20;;;7.80;;
57899;SDS011;60605;53.716;19.940;2023-06-24T02:09:19;8.50;;;7.60;;
57899;SDS011;60605;53.716;19.940;2023-06-24T02:14:23;8.40;;;7.50;;
57899;SDS011;60605;53.716;19.940;2023-06-24T02:19:27;11.20;;;8.70;;
57899;SDS011;60605;53.716;19.940;2023-06-24T02:24:32;9.70;;;8.00;;
57899;SDS011;60605;53.716;19.940;2023-06-24T02:29:34;10.10;;;8.70;;
57899;SDS011;60605;53.716;19.940;2023-06-24T02:34:38;10.20;;;8.40;;
57899;SDS011;60605;53.716;19.940;2023-06-24T02:39:41;11.00;;;8.90;;
57899;SDS011;60605;53.716;19.940;2023-06-24T02:44:45;11.80;;;8.80;;
57899;SDS011;60605;53.716;19.940;2023-06-24T02:49:48;15.10;;;10.60;;
57899;SDS011;60605;53.716;19.940;2023-06-24T02:54:52;17.00;;;11.00;;
57899;SDS011;60605;53.716;19.940;2023-06-24T02:59:54;15.40;;;12.30;;
57899;SDS011;60605;53.716;19.940;2023-06-24T03:04:56;19.20;;;12.10;;
57899;SDS011;60605;53.716;19.940;2023-06-24T03:09:59;16.90;;;11.90;;
57899;SDS011;60605;53.716;19.940;2023-06-24T03:15:01;15.50;;;12.10;;
57899;SDS011;60605;53.716;19.940;2023-06-24T03:20:04;14.10;;;11.70;;
57899;SDS011;60605;53.716;19.940;2023-06-24T03:25:07;12.40;;;11.00;;
57899;SDS011;60605;53.716;19.940;2023-06-24T03:30:11;14.30;;;10.30;;
57899;SDS011;60605;53.716;19.940;2023-06-24T03:35:15;18.00;;;10.70;;
57899;SDS011;60605;53.716;19.940;2023-06-24T03:40:17;13.10;;;9.50;;
57899;SDS011;60605;53.716;19.940;2023-06-24T03:45:20;13.50;;;9.80;;
57899;SDS011;60605;53.716;19.940;2023-06-24T03:50:22;11.20;;;9.40;;
57899;SDS011;60605;53.716;19.940;2023-06-24T03:55:24;14.60;;;9.70;;
57899;SDS011;60605;53.716;19.940;2023-06-24T04:00:26;13.50;;;9.50;;
57899;SDS011;60605;53.716;19.940;2023-06-24T04:05:28;13.30;;;9.40;;
57899;SDS011;60605;53.716;19.940;2023-06-24T04:10:30;10.80;;;8.90;;
57899;SDS011;60605;53.716;19.940;2023-06-24T04:15:32;8.90;;;7.80;;
57899;SDS011;60605;53.716;19.940;2023-06-24T04:20:35;14.90;;;9.10;;
57899;SDS011;60605;53.716;19.940;2023-06-24T04:25:39;11.80;;;8.90;;
57899;SDS011;60605;53.716;19.940;2023-06-24T04:30:41;15.50;;;10.00;;
57899;SDS011;60605;53.716;19.940;2023-06-24T04:35:43;9.80;;;8.30;;
57899;SDS011;60605;53.716;19.940;2023-06-24T04:40:45;10.60;;;8.80;;
57899;SDS011;60605;53.716;19.940;2023-06-24T04:45:48;13.80;;;8.10;;
57899;SDS011;60605;53.716;19.940;2023-06-24T04:50:50;9.90;;;7.70;;
57899;SDS011;60605;53.716;19.940;2023-06-24T04:55:52;8.30;;;6.90;;
57899;SDS011;60605;53.716;19.940;2023-06-24T05:00:54;7.30;;;6.60;;
57899;SDS011;60605;53.716;19.940;2023-06-24T05:05:56;7.50;;;6.70;;
57899;SDS011;60605;53.716;19.940;2023-06-24T05:10:58;12.50;;;7.20;;
57899;SDS011;60605;53.716;19.940;2023-06-24T05:16:00;8.50;;;6.40;;
57899;SDS011;60605;53.716;19.940;2023-06-24T05:21:02;6.90;;;6.00;;
57899;SDS011;60605;53.716;19.940;2023-06-24T05:26:04;12.80;;;6.50;;
57899;SDS011;60605;53.716;19.940;2023-06-24T05:31:06;7.10;;;6.30;;
57899;SDS011;60605;53.716;19.940;2023-06-24T05:36:08;7.90;;;6.70;;
57899;SDS011;60605;53.716;19.940;2023-06-24T05:41:10;8.50;;;6.80;;
57899;SDS011;60605;53.716;19.940;2023-06-24T05:46:12;9.70;;;6.60;;
57899;SDS011;60605;53.716;19.940;2023-06-24T05:51:15;10.50;;;5.70;;
57899;SDS011;60605;53.716;19.940;2023-06-24T05:56:17;7.00;;;5.70;;
57899;SDS011;60605;53.716;19.940;2023-06-24T06:01:19;8.90;;;6.00;;
57899;SDS011;60605;53.716;19.940;2023-06-24T06:06:21;6.80;;;5.40;;
57899;SDS011;60605;53.716;19.940;2023-06-24T06:11:23;7.30;;;5.30;;
57899;SDS011;60605;53.716;19.940;2023-06-24T06:16:25;5.30;;;4.80;;
57899;SDS011;60605;53.716;19.940;2023-06-24T06:21:28;8.60;;;5.20;;
57899;SDS011;60605;53.716;19.940;2023-06-24T06:26:29;5.70;;;4.90;;
57899;SDS011;60605;53.716;19.940;2023-06-24T06:31:31;6.90;;;5.20;;
57899;SDS011;60605;53.716;19.940;2023-06-24T06:41:37;6.10;;;5.00;;
57899;SDS011;60605;53.716;19.940;2023-06-24T06:51:41;6.10;;;5.10;;
57899;SDS011;60605;53.716;19.940;2023-06-24T07:01:45;5.70;;;5.10;;
57899;SDS011;60605;53.716;19.940;2023-06-24T07:06:47;6.40;;;4.40;;
57899;SDS011;60605;53.716;19.940;2023-06-24T07:11:49;9.10;;;5.00;;
57899;SDS011;60605;53.716;19.940;2023-06-24T07:16:51;6.10;;;4.60;;
57899;SDS011;60605;53.716;19.940;2023-06-24T07:21:53;7.00;;;4.70;;
57899;SDS011;60605;53.716;19.940;2023-06-24T07:26:55;5.20;;;4.30;;
57899;SDS011;60605;53.716;19.940;2023-06-24T07:31:57;5.00;;;4.40;;
57899;SDS011;60605;53.716;19.940;2023-06-24T07:36:59;6.00;;;4.40;;
57899;SDS011;60605;53.716;19.940;2023-06-24T07:42:12;4.40;;;3.80;;
57899;SDS011;60605;53.716;19.940;2023-06-24T07:47:20;5.30;;;4.20;;
57899;SDS011;60605;53.716;19.940;2023-06-24T07:52:22;5.60;;;3.70;;
57899;SDS011;60605;53.716;19.940;2023-06-24T07:57:26;3.70;;;3.40;;
57899;SDS011;60605;53.716;19.940;2023-06-24T08:02:29;3.90;;;3.40;;
57899;SDS011;60605;53.716;19.940;2023-06-24T08:07:32;3.60;;;2.80;;
57899;SDS011;60605;53.716;19.940;2023-06-24T08:12:34;4.40;;;3.40;;
57899;SDS011;60605;53.716;19.940;2023-06-24T08:17:36;3.70;;;2.50;;
57899;SDS011;60605;53.716;19.940;2023-06-24T08:22:38;3.30;;;2.70;;
57899;SDS011;60605;53.716;19.940;2023-06-24T08:27:40;3.30;;;3.00;;
57899;SDS011;60605;53.716;19.940;2023-06-24T08:32:42;2.70;;;2.50;;
57899;SDS011;60605;53.716;19.940;2023-06-24T08:37:45;5.30;;;2.80;;
57899;SDS011;60605;53.716;19.940;2023-06-24T08:42:47;3.50;;;2.70;;
57899;SDS011;60605;53.716;19.940;2023-06-24T08:47:49;5.40;;;4.00;;
57899;SDS011;60605;53.716;19.940;2023-06-24T08:52:52;4.60;;;2.80;;
57899;SDS011;60605;53.716;19.940;2023-06-24T08:57:54;4.30;;;2.70;;
57899;SDS011;60605;53.716;19.940;2023-06-24T09:02:56;2.90;;;2.60;;
57899;SDS011;60605;53.716;19.940;2023-06-24T09:07:59;3.80;;;2.90;;
57899;SDS011;60605;53.716;19.940;2023-06-24T09:13:01;3.30;;;2.60;;
57899;SDS011;60605;53.716;19.940;2023-06-24T09:18:04;3.80;;;2.80;;
57899;SDS011;60605;53.716;19.940;2023-06-24T09:23:07;3.10;;;2.70;;
57899;SDS011;60605;53.716;19.940;2023-06-24T09:28:09;3.80;;;2.80;;
57899;SDS011;60605;53.716;19.940;2023-06-24T09:33:14;2.90;;;2.60;;
57899;SDS011;60605;53.716;19.940;2023-06-24T09:38:32;3.40;;;2.50;;
57899;SDS011;60605;53.716;19.940;2023-06-24T09:43:37;2.60;;;2.40;;
57899;SDS011;60605;53.716;19.940;2023-06-24T09:48:41;2.80;;;2.50;;
57899;SDS011;60605;53.716;19.940;2023-06-24T09:53:44;2.70;;;2.20;;
57899;SDS011;60605;53.716;19.940;2023-06-24T09:58:47;3.40;;;2.60;;
57899;SDS011;60605;53.716;19.940;2023-06-24T10:03:49;3.00;;;2.60;;
57899;SDS011;60605;53.716;19.940;2023-06-24T10:08:52;2.60;;;2.40;;
57899;SDS011;60605;53.716;19.940;2023-06-24T10:13:54;2.50;;;2.30;;
57899;SDS011;60605;53.716;19.940;2023-06-24T10:19:00;2.70;;;2.50;;
57899;SDS011;60605;53.716;19.940;2023-06-24T10:24:03;3.00;;;2.30;;
57899;SDS011;60605;53.716;19.940;2023-06-24T10:39:36;5.30;;;2.60;;
57899;SDS011;60605;53.716;19.940;2023-06-24T10:44:47;8.70;;;3.20;;
57899;SDS011;60605;53.716;19.940;2023-06-24T10:49:50;3.20;;;2.70;;
57899;SDS011;60605;53.716;19.940;2023-06-24T10:54:52;6.00;;;2.80;;
57899;SDS011;60605;53.716;19.940;2023-06-24T10:59:56;11.10;;;4.10;;
57899;SDS011;60605;53.716;19.940;2023-06-24T11:04:59;2.60;;;2.40;;
57899;SDS011;60605;53.716;19.940;2023-06-24T11:10:04;3.40;;;2.80;;
57899;SDS011;60605;53.716;19.940;2023-06-24T11:15:11;13.30;;;4.70;;
57899;SDS011;60605;53.716;19.940;2023-06-24T11:20:15;6.30;;;3.70;;
57899;SDS011;60605;53.716;19.940;2023-06-24T11:25:18;7.60;;;3.30;;
57899;SDS011;60605;53.716;19.940;2023-06-24T11:30:21;7.80;;;2.90;;
57899;SDS011;60605;53.716;19.940;2023-06-24T11:35:23;3.40;;;2.90;;
57899;SDS011;60605;53.716;19.940;2023-06-24T11:40:25;5.30;;;3.00;;
57899;SDS011;60605;53.716;19.940;2023-06-24T11:45:27;4.00;;;2.90;;
57899;SDS011;60605;53.716;19.940;2023-06-24T11:50:29;3.40;;;2.90;;
57899;SDS011;60605;53.716;19.940;2023-06-24T11:55:31;4.90;;;3.20;;
57899;SDS011;60605;53.716;19.940;2023-06-24T12:00:38;6.30;;;3.50;;
57899;SDS011;60605;53.716;19.940;2023-06-24T12:05:42;4.60;;;3.10;;
57899;SDS011;60605;53.716;19.940;2023-06-24T12:10:49;4.30;;;3.20;;
57899;SDS011;60605;53.716;19.940;2023-06-24T12:15:51;8.80;;;3.40;;
57899;SDS011;60605;53.716;19.940;2023-06-24T12:20:53;3.80;;;3.20;;
57899;SDS011;60605;53.716;19.940;2023-06-24T12:25:56;4.80;;;2.90;;
57899;SDS011;60605;53.716;19.940;2023-06-24T12:30:58;4.50;;;3.10;;
57899;SDS011;60605;53.716;19.940;2023-06-24T12:36:00;3.70;;;3.10;;
57899;SDS011;60605;53.716;19.940;2023-06-24T12:41:02;4.60;;;3.10;;
57899;SDS011;60605;53.716;19.940;2023-06-24T12:46:04;4.90;;;3.20;;
57899;SDS011;60605;53.716;19.940;2023-06-24T12:51:06;3.70;;;3.40;;
57899;SDS011;60605;53.716;19.940;2023-06-24T12:56:08;3.60;;;3.00;;
57899;SDS011;60605;53.716;19.940;2023-06-24T13:01:10;4.00;;;3.30;;
57899;SDS011;60605;53.716;19.940;2023-06-24T13:06:15;3.30;;;3.00;;
57899;SDS011;60605;53.716;19.940;2023-06-24T13:11:17;3.50;;;3.20;;
57899;SDS011;60605;53.716;19.940;2023-06-24T13:16:19;4.10;;;3.70;;
57899;SDS011;60605;53.716;19.940;2023-06-24T13:21:22;3.60;;;3.20;;
57899;SDS011;60605;53.716;19.940;2023-06-24T13:26:25;5.50;;;3.20;;
57899;SDS011;60605;53.716;19.940;2023-06-24T13:31:27;3.80;;;3.30;;
57899;SDS011;60605;53.716;19.940;2023-06-24T13:36:30;7.90;;;3.80;;
57899;SDS011;60605;53.716;19.940;2023-06-24T13:41:35;8.50;;;4.20;;
57899;SDS011;60605;53.716;19.940;2023-06-24T13:46:37;11.50;;;4.80;;
57899;SDS011;60605;53.716;19.940;2023-06-24T13:51:39;3.70;;;3.30;;
57899;SDS011;60605;53.716;19.940;2023-06-24T13:56:44;3.40;;;3.10;;
57899;SDS011;60605;53.716;19.940;2023-06-24T14:01:46;3.70;;;3.30;;
57899;SDS011;60605;53.716;19.940;2023-06-24T14:06:48;7.60;;;3.70;;
57899;SDS011;60605;53.716;19.940;2023-06-24T14:11:51;13.00;;;4.90;;
57899;SDS011;60605;53.716;19.940;2023-06-24T14:16:53;6.70;;;3.90;;
57899;SDS011;60605;53.716;19.940;2023-06-24T14:21:55;4.50;;;3.60;;
57899;SDS011;60605;53.716;19.940;2023-06-24T14:26:57;3.80;;;3.30;;
57899;SDS011;60605;53.716;19.940;2023-06-24T14:32:00;30.30;;;4.40;;
57899;SDS011;60605;53.716;19.940;2023-06-24T14:37:02;7.50;;;3.50;;
57899;SDS011;60605;53.716;19.940;2023-06-24T14:42:04;4.20;;;3.10;;
57899;SDS011;60605;53.716;19.940;2023-06-24T14:47:06;3.90;;;3.40;;
57899;SDS011;60605;53.716;19.940;2023-06-24T14:52:09;5.00;;;3.70;;
57899;SDS011;60605;53.716;19.940;2023-06-24T14:57:11;4.20;;;3.50;;
57899;SDS011;60605;53.716;19.940;2023-06-24T15:07:15;3.70;;;3.30;;
57899;SDS011;60605;53.716;19.940;2023-06-24T15:12:16;5.80;;;3.70;;
57899;SDS011;60605;53.716;19.940;2023-06-24T15:17:19;4.00;;;3.20;;
57899;SDS011;60605;53.716;19.940;2023-06-24T15:22:23;14.70;;;11.50;;
57899;SDS011;60605;53.716;19.940;2023-06-24T15:27:25;4.10;;;3.30;;
57899;SDS011;60605;53.716;19.940;2023-06-24T15:37:29;4.60;;;3.40;;
57899;SDS011;60605;53.716;19.940;2023-06-24T15:42:31;4.70;;;4.10;;
57899;SDS011;60605;53.716;19.940;2023-06-24T15:47:33;5.30;;;3.60;;
57899;SDS011;60605;53.716;19.940;2023-06-24T15:52:35;6.10;;;4.20;;
57899;SDS011;60605;53.716;19.940;2023-06-24T16:12:43;5.00;;;3.90;;
57899;SDS011;60605;53.716;19.940;2023-06-24T16:17:45;9.50;;;4.40;;
57899;SDS011;60605;53.716;19.940;2023-06-24T16:22:47;6.70;;;4.50;;
57899;SDS011;60605;53.716;19.940;2023-06-24T16:27:50;5.70;;;3.70;;
57899;SDS011;60605;53.716;19.940;2023-06-24T16:32:51;5.90;;;4.90;;
57899;SDS011;60605;53.716;19.940;2023-06-24T16:42:56;5.10;;;3.80;;
57899;SDS011;60605;53.716;19.940;2023-06-24T16:47:58;10.40;;;7.50;;
57899;SDS011;60605;53.716;19.940;2023-06-24T16:53:01;6.00;;;4.00;;
57899;SDS011;60605;53.716;19.940;2023-06-24T16:58:04;6.20;;;4.10;;
57899;SDS011;60605;53.716;19.940;2023-06-24T17:03:07;7.80;;;4.00;;
57899;SDS011;60605;53.716;19.940;2023-06-24T17:08:09;10.20;;;7.40;;
57899;SDS011;60605;53.716;19.940;2023-06-24T17:13:11;13.20;;;8.40;;
57899;SDS011;60605;53.716;19.940;2023-06-24T17:18:14;7.90;;;5.60;;
57899;SDS011;60605;53.716;19.940;2023-06-24T17:23:17;8.60;;;5.60;;
57899;SDS011;60605;53.716;19.940;2023-06-24T17:28:19;5.00;;;3.70;;
57899;SDS011;60605;53.716;19.940;2023-06-24T17:38:25;3.60;;;3.20;;
57899;SDS011;60605;53.716;19.940;2023-06-24T17:43:28;6.50;;;4.00;;
57899;SDS011;60605;53.716;19.940;2023-06-24T17:48:32;3.80;;;3.40;;
57899;SDS011;60605;53.716;19.940;2023-06-24T17:53:34;4.30;;;3.90;;
57899;SDS011;60605;53.716;19.940;2023-06-24T17:58:37;4.90;;;4.20;;
57899;SDS011;60605;53.716;19.940;2023-06-24T18:03:39;6.30;;;4.40;;
57899;SDS011;60605;53.716;19.940;2023-06-24T18:08:41;6.90;;;4.50;;
57899;SDS011;60605;53.716;19.940;2023-06-24T18:13:43;7.70;;;5.60;;
57899;SDS011;60605;53.716;19.940;2023-06-24T18:18:45;5.40;;;4.60;;
57899;SDS011;60605;53.716;19.940;2023-06-24T18:23:47;7.50;;;5.20;;
57899;SDS011;60605;53.716;19.940;2023-06-24T18:28:48;5.20;;;4.30;;
57899;SDS011;60605;53.716;19.940;2023-06-24T18:33:50;7.20;;;5.10;;
57899;SDS011;60605;53.716;19.940;2023-06-24T18:38:53;5.60;;;4.50;;
57899;SDS011;60605;53.716;19.940;2023-06-24T18:43:55;8.20;;;4.50;;
57899;SDS011;60605;53.716;19.940;2023-06-24T18:48:57;5.70;;;4.60;;
57899;SDS011;60605;53.716;19.940;2023-06-24T18:53:59;6.10;;;4.40;;
57899;SDS011;60605;53.716;19.940;2023-06-24T18:59:01;12.40;;;9.20;;
57899;SDS011;60605;53.716;19.940;2023-06-24T19:04:03;7.80;;;4.60;;
57899;SDS011;60605;53.716;19.940;2023-06-24T19:09:05;4.20;;;3.70;;
57899;SDS011;60605;53.716;19.940;2023-06-24T19:14:07;5.00;;;3.70;;
57899;SDS011;60605;53.716;19.940;2023-06-24T19:19:09;4.10;;;3.60;;
57899;SDS011;60605;53.716;19.940;2023-06-24T19:24:11;6.00;;;4.20;;
57899;SDS011;60605;53.716;19.940;2023-06-24T19:29:13;5.20;;;3.90;;
57899;SDS011;60605;53.716;19.940;2023-06-24T19:34:14;6.40;;;4.10;;
57899;SDS011;60605;53.716;19.940;2023-06-24T19:39:17;5.40;;;4.50;;
57899;SDS011;60605;53.716;19.940;2023-06-24T19:44:19;6.70;;;4.70;;
57899;SDS011;60605;53.716;19.940;2023-06-24T19:49:21;7.10;;;5.00;;
57899;SDS011;60605;53.716;19.940;2023-06-24T19:54:24;5.70;;;4.20;;
57899;SDS011;60605;53.716;19.940;2023-06-24T19:59:25;6.40;;;4.60;;
57899;SDS011;60605;53.716;19.940;2023-06-24T20:04:28;4.40;;;4.00;;
57899;SDS011;60605;53.716;19.940;2023-06-24T20:09:31;5.90;;;4.50;;
57899;SDS011;60605;53.716;19.940;2023-06-24T20:14:33;5.20;;;4.50;;
57899;SDS011;60605;53.716;19.940;2023-06-24T20:19:35;6.00;;;5.00;;
57899;SDS011;60605;53.716;19.940;2023-06-24T20:24:38;7.20;;;4.90;;
57899;SDS011;60605;53.716;19.940;2023-06-24T20:29:41;5.20;;;4.50;;
57899;SDS011;60605;53.716;19.940;2023-06-24T20:34:43;8.10;;;4.90;;
57899;SDS011;60605;53.716;19.940;2023-06-24T20:39:45;8.60;;;4.90;;
57899;SDS011;60605;53.716;19.940;2023-06-24T20:44:47;8.20;;;5.40;;
57899;SDS011;60605;53.716;19.940;2023-06-24T20:49:51;5.90;;;5.30;;
57899;SDS011;60605;53.716;19.940;2023-06-24T20:54:54;6.90;;;5.60;;
57899;SDS011;60605;53.716;19.940;2023-06-24T20:59:56;7.10;;;5.80;;
57899;SDS011;60605;53.716;19.940;2023-06-24T21:04:58;8.40;;;5.70;;
57899;SDS011;60605;53.716;19.940;2023-06-24T21:10:01;6.60;;;5.30;;
57899;SDS011;60605;53.716;19.940;2023-06-24T21:15:05;8.30;;;6.00;;
57899;SDS011;60605;53.716;19.940;2023-06-24T21:20:09;7.40;;;5.50;;
57899;SDS011;60605;53.716;19.940;2023-06-24T21:25:12;10.50;;;6.50;;
57899;SDS011;60605;53.716;19.940;2023-06-24T21:30:14;6.20;;;5.60;;
57899;SDS011;60605;53.716;19.940;2023-06-24T21:35:16;9.20;;;6.20;;
57899;SDS011;60605;53.716;19.940;2023-06-24T21:40:20;7.60;;;6.30;;
57899;SDS011;60605;53.716;19.940;2023-06-24T21:45:22;8.10;;;6.40;;
57899;SDS011;60605;53.716;19.940;2023-06-24T21:50:25;8.90;;;6.80;;
57899;SDS011;60605;53.716;19.940;2023-06-24T21:55:30;9.40;;;6.50;;
57899;SDS011;60605;53.716;19.940;2023-06-24T22:00:32;9.20;;;6.20;;
57899;SDS011;60605;53.716;19.940;2023-06-24T22:05:36;7.80;;;6.80;;
57899;SDS011;60605;53.716;19.940;2023-06-24T22:10:38;11.70;;;7.40;;
57899;SDS011;60605;53.716;19.940;2023-06-24T22:15:40;10.40;;;7.70;;
57899;SDS011;60605;53.716;19.940;2023-06-24T22:20:43;7.80;;;7.10;;
57899;SDS011;60605;53.716;19.940;2023-06-24T22:25:44;9.20;;;7.70;;
57899;SDS011;60605;53.716;19.940;2023-06-24T22:30:46;10.90;;;8.00;;
57899;SDS011;60605;53.716;19.940;2023-06-24T22:35:49;13.60;;;8.70;;
57899;SDS011;60605;53.716;19.940;2023-06-24T22:40:50;9.40;;;7.60;;
57899;SDS011;60605;53.716;19.940;2023-06-24T22:45:52;11.10;;;8.80;;
57899;SDS011;60605;53.716;19.940;2023-06-24T22:50:54;9.80;;;8.40;;
57899;SDS011;60605;53.716;19.940;2023-06-24T22:55:57;12.10;;;8.40;;
57899;SDS011;60605;53.716;19.940;2023-06-24T23:00:59;12.40;;;8.60;;
57899;SDS011;60605;53.716;19.940;2023-06-24T23:06:01;13.90;;;10.00;;
57899;SDS011;60605;53.716;19.940;2023-06-24T23:11:03;12.40;;;9.30;;
57899;SDS011;60605;53.716;19.940;2023-06-24T23:16:06;11.40;;;9.20;;
57899;SDS011;60605;53.716;19.940;2023-06-24T23:21:09;12.10;;;9.50;;
57899;SDS011;60605;53.716;19.940;2023-06-24T23:26:14;12.50;;;10.20;;
57899;SDS011;60605;53.716;19.940;2023-06-24T23:31:17;11.90;;;9.40;;
57899;SDS011;60605;53.716;19.940;2023-06-24T23:36:22;11.80;;;9.60;;
57899;SDS011;60605;53.716;19.940;2023-06-24T23:41:25;13.40;;;10.80;;
57899;SDS011;60605;53.716;19.940;2023-06-24T23:46:28;15.80;;;10.80;;
57899;SDS011;60605;53.716;19.940;2023-06-24T23:51:31;17.80;;;11.60;;
57899;SDS011;60605;53.716;19.940;2023-06-24T23:56:33;15.80;;;12.00;;
